sensor_id;sensor_type;location;lat;lon;timestamp;pressure;altitude;pressure_sealevel;temperature;humidity
49040;BME280;36811;49.732;13.402;2022-09-28T00:02:06;96236.22;;;8.95;85.13
49040;BME280;36811;49.732;13.402;2022-09-28T00:04:32;96229.03;;;8.95;84.82
49040;BME280;36811;49.732;13.402;2022-09-28T00:06:59;96218.72;;;8.94;84.73
49040;BME280;36811;49.732;13.402;2022-09-28T00:09:25;96231.63;;;9.01;84.61
49040;BME280;36811;49.732;13.402;2022-09-28T00:11:51;96229.78;;;9.01;84.19
49040;BME280;36811;49.732;13.402;2022-09-28T00:14:22;96217.81;;;9.04;84.67
49040;BME280;36811;49.732;13.402;2022-09-28T00:16:49;96229.66;;;9.11;84.68
49040;BME280;36811;49.732;13.402;2022-09-28T00:19:14;96220.09;;;9.15;84.60
49040;BME280;36811;49.732;13.402;2022-09-28T00:21:41;96220.53;;;9.22;84.57
49040;BME280;36811;49.732;13.402;2022-09-28T00:24:11;96213.63;;;9.21;84.34
49040;BME280;36811;49.732;13.402;2022-09-28T00:26:48;96216.81;;;9.23;84.84
49040;BME280;36811;49.732;13.402;2022-09-28T00:31:41;96206.53;;;9.17;84.31
49040;BME280;36811;49.732;13.402;2022-09-28T00:34:07;96209.25;;;9.12;85.01
49040;BME280;36811;49.732;13.402;2022-09-28T00:36:33;96210.25;;;9.16;85.02
49040;BME280;36811;49.732;13.402;2022-09-28T00:39:04;96199.66;;;9.16;84.45
49040;BME280;36811;49.732;13.402;2022-09-28T00:41:30;96205.22;;;9.14;84.68
49040;BME280;36811;49.732;13.402;2022-09-28T00:49:56;96192.31;;;9.08;84.56
49040;BME280;36811;49.732;13.402;2022-09-28T00:52:43;96201.00;;;9.13;84.57
49040;BME280;36811;49.732;13.402;2022-09-28T00:55:18;96192.75;;;9.15;84.13
49040;BME280;36811;49.732;13.402;2022-09-28T00:57:50;96204.97;;;9.16;83.96
49040;BME280;36811;49.732;13.402;2022-09-28T01:00:18;96206.03;;;9.15;83.87
49040;BME280;36811;49.732;13.402;2022-09-28T01:02:44;96207.31;;;9.17;83.62
49040;BME280;36811;49.732;13.402;2022-09-28T01:05:11;96207.31;;;9.17;83.43
49040;BME280;36811;49.732;13.402;2022-09-28T01:07:38;96200.41;;;9.16;83.20
49040;BME280;36811;49.732;13.402;2022-09-28T01:10:06;96205.16;;;9.19;83.22
49040;BME280;36811;49.732;13.402;2022-09-28T01:12:32;96202.50;;;9.19;83.13
49040;BME280;36811;49.732;13.402;2022-09-28T01:14:58;96201.72;;;9.19;83.30
49040;BME280;36811;49.732;13.402;2022-09-28T01:17:52;96202.25;;;9.21;82.82
49040;BME280;36811;49.732;13.402;2022-09-28T01:23:17;96200.22;;;9.13;82.73
49040;BME280;36811;49.732;13.402;2022-09-28T01:28:37;96187.81;;;9.08;82.36
49040;BME280;36811;49.732;13.402;2022-09-28T01:31:12;96195.25;;;9.06;82.78
49040;BME280;36811;49.732;13.402;2022-09-28T01:33:54;96182.50;;;9.08;82.52
49040;BME280;36811;49.732;13.402;2022-09-28T01:36:35;96178.78;;;9.09;82.87
49040;BME280;36811;49.732;13.402;2022-09-28T01:39:11;96176.63;;;9.11;82.45
49040;BME280;36811;49.732;13.402;2022-09-28T01:41:41;96177.91;;;9.14;83.02
49040;BME280;36811;49.732;13.402;2022-09-28T01:44:12;96167.81;;;9.16;82.71
49040;BME280;36811;49.732;13.402;2022-09-28T01:46:43;96176.06;;;9.14;82.12
49040;BME280;36811;49.732;13.402;2022-09-28T01:49:18;96168.25;;;9.23;81.90
49040;BME280;36811;49.732;13.402;2022-09-28T01:51:59;96158.22;;;9.20;81.66
49040;BME280;36811;49.732;13.402;2022-09-28T01:54:29;96166.97;;;9.20;82.10
49040;BME280;36811;49.732;13.402;2022-09-28T01:59:29;96153.34;;;9.27;81.61
49040;BME280;36811;49.732;13.402;2022-09-28T02:02:04;96149.81;;;9.31;81.08
49040;BME280;36811;49.732;13.402;2022-09-28T02:04:36;96159.13;;;9.29;81.21
49040;BME280;36811;49.732;13.402;2022-09-28T02:07:09;96153.34;;;9.27;80.96
49040;BME280;36811;49.732;13.402;2022-09-28T02:09:41;96153.63;;;9.25;81.28
49040;BME280;36811;49.732;13.402;2022-09-28T02:12:23;96147.03;;;9.23;81.07
49040;BME280;36811;49.732;13.402;2022-09-28T02:14:54;96146.25;;;9.22;81.28
49040;BME280;36811;49.732;13.402;2022-09-28T02:17:24;96136.50;;;9.18;80.60
49040;BME280;36811;49.732;13.402;2022-09-28T02:19:49;96140.56;;;9.10;80.72
49040;BME280;36811;49.732;13.402;2022-09-28T02:22:25;96139.56;;;9.06;81.17
49040;BME280;36811;49.732;13.402;2022-09-28T02:24:58;96148.13;;;8.98;80.39
49040;BME280;36811;49.732;13.402;2022-09-28T02:29:56;96141.84;;;8.70;80.96
49040;BME280;36811;49.732;13.402;2022-09-28T02:32:24;96143.63;;;8.56;81.60
49040;BME280;36811;49.732;13.402;2022-09-28T02:34:50;96145.88;;;8.44;81.54
49040;BME280;36811;49.732;13.402;2022-09-28T02:37:16;96145.97;;;8.34;81.75
49040;BME280;36811;49.732;13.402;2022-09-28T02:39:41;96133.88;;;8.23;82.56
49040;BME280;36811;49.732;13.402;2022-09-28T02:42:33;96133.41;;;8.16;82.33
49040;BME280;36811;49.732;13.402;2022-09-28T02:48:30;96132.56;;;7.97;82.58
49040;BME280;36811;49.732;13.402;2022-09-28T02:56:40;96114.75;;;7.74;83.48
49040;BME280;36811;49.732;13.402;2022-09-28T02:59:13;96124.28;;;7.69;83.87
49040;BME280;36811;49.732;13.402;2022-09-28T03:06:53;96108.03;;;7.52;83.89
49040;BME280;36811;49.732;13.402;2022-09-28T03:09:36;96117.28;;;7.55;83.97
49040;BME280;36811;49.732;13.402;2022-09-28T03:12:10;96115.47;;;7.50;83.88
49040;BME280;36811;49.732;13.402;2022-09-28T03:14:37;96118.66;;;7.47;84.33
49040;BME280;36811;49.732;13.402;2022-09-28T03:17:03;96104.41;;;7.43;84.30
49040;BME280;36811;49.732;13.402;2022-09-28T03:19:31;96117.91;;;7.42;84.32
49040;BME280;36811;49.732;13.402;2022-09-28T03:21:57;96107.34;;;7.37;84.02
49040;BME280;36811;49.732;13.402;2022-09-28T03:24:24;96097.84;;;7.36;84.42
49040;BME280;36811;49.732;13.402;2022-09-28T03:26:50;96095.47;;;7.34;84.11
49040;BME280;36811;49.732;13.402;2022-09-28T03:29:15;96091.25;;;7.33;84.00
49040;BME280;36811;49.732;13.402;2022-09-28T03:31:41;96087.78;;;7.38;83.67
49040;BME280;36811;49.732;13.402;2022-09-28T03:34:08;96082.50;;;7.38;83.55
49040;BME280;36811;49.732;13.402;2022-09-28T03:36:34;96084.34;;;7.37;83.94
49040;BME280;36811;49.732;13.402;2022-09-28T03:38:59;96082.50;;;7.38;83.91
49040;BME280;36811;49.732;13.402;2022-09-28T03:41:26;96080.06;;;7.41;84.06
49040;BME280;36811;49.732;13.402;2022-09-28T03:43:54;96067.06;;;7.50;83.61
49040;BME280;36811;49.732;13.402;2022-09-28T03:46:20;96074.69;;;7.51;83.52
49040;BME280;36811;49.732;13.402;2022-09-28T03:48:46;96073.69;;;7.47;83.77
49040;BME280;36811;49.732;13.402;2022-09-28T03:51:12;96066.81;;;7.46;84.55
49040;BME280;36811;49.732;13.402;2022-09-28T03:53:39;96063.03;;;7.57;83.90
49040;BME280;36811;49.732;13.402;2022-09-28T03:56:10;96051.88;;;7.60;84.13
49040;BME280;36811;49.732;13.402;2022-09-28T03:58:37;96056.00;;;7.72;83.72
49040;BME280;36811;49.732;13.402;2022-09-28T04:01:05;96045.59;;;7.80;83.97
49040;BME280;36811;49.732;13.402;2022-09-28T04:03:32;96040.22;;;7.90;83.60
49040;BME280;36811;49.732;13.402;2022-09-28T04:05:58;96031.97;;;7.97;82.97
49040;BME280;36811;49.732;13.402;2022-09-28T04:08:24;96029.47;;;8.05;82.63
49040;BME280;36811;49.732;13.402;2022-09-28T04:10:50;96035.50;;;8.11;82.91
49040;BME280;36811;49.732;13.402;2022-09-28T04:13:16;96024.06;;;8.15;82.11
49040;BME280;36811;49.732;13.402;2022-09-28T04:15:42;96016.56;;;8.22;82.46
49040;BME280;36811;49.732;13.402;2022-09-28T04:18:16;96013.69;;;8.19;82.80
49040;BME280;36811;49.732;13.402;2022-09-28T04:20:41;96010.59;;;8.12;83.79
49040;BME280;36811;49.732;13.402;2022-09-28T04:23:10;96009.63;;;8.03;83.40
49040;BME280;36811;49.732;13.402;2022-09-28T04:25:36;96004.06;;;8.04;84.01
49040;BME280;36811;49.732;13.402;2022-09-28T04:28:04;95996.41;;;8.03;83.84
49040;BME280;36811;49.732;13.402;2022-09-28T04:30:48;96023.06;;;8.11;84.61
49040;BME280;36811;49.732;13.402;2022-09-28T04:33:14;96001.00;;;8.16;84.63
49040;BME280;36811;49.732;13.402;2022-09-28T04:35:40;95993.38;;;8.14;85.30
49040;BME280;36811;49.732;13.402;2022-09-28T04:38:06;95991.22;;;8.16;85.87
49040;BME280;36811;49.732;13.402;2022-09-28T04:40:31;95994.66;;;8.17;85.90
49040;BME280;36811;49.732;13.402;2022-09-28T04:42:57;95993.19;;;8.06;85.81
49040;BME280;36811;49.732;13.402;2022-09-28T04:45:23;95993.88;;;7.93;86.37
49040;BME280;36811;49.732;13.402;2022-09-28T04:47:53;95995.66;;;7.97;86.85
49040;BME280;36811;49.732;13.402;2022-09-28T04:50:19;95990.31;;;8.02;86.92
49040;BME280;36811;49.732;13.402;2022-09-28T04:52:44;95988.13;;;7.86;90.03
49040;BME280;36811;49.732;13.402;2022-09-28T04:55:13;95986.16;;;7.73;90.68
49040;BME280;36811;49.732;13.402;2022-09-28T04:57:40;95988.91;;;7.62;91.05
49040;BME280;36811;49.732;13.402;2022-09-28T05:00:06;95987.34;;;7.56;91.73
49040;BME280;36811;49.732;13.402;2022-09-28T05:02:33;95978.91;;;7.54;91.53
49040;BME280;36811;49.732;13.402;2022-09-28T05:04:58;95975.81;;;7.47;93.27
49040;BME280;36811;49.732;13.402;2022-09-28T05:07:25;95972.38;;;7.47;95.18
49040;BME280;36811;49.732;13.402;2022-09-28T05:09:51;95958.38;;;7.46;97.86
49040;BME280;36811;49.732;13.402;2022-09-28T05:12:17;95955.25;;;7.39;100.00
49040;BME280;36811;49.732;13.402;2022-09-28T05:14:43;95943.69;;;7.35;100.00
49040;BME280;36811;49.732;13.402;2022-09-28T05:17:09;95939.50;;;7.29;100.00
49040;BME280;36811;49.732;13.402;2022-09-28T05:19:34;95927.06;;;7.30;100.00
49040;BME280;36811;49.732;13.402;2022-09-28T05:22:01;95925.22;;;7.30;100.00
49040;BME280;36811;49.732;13.402;2022-09-28T05:24:32;95923.94;;;7.28;100.00
49040;BME280;36811;49.732;13.402;2022-09-28T05:26:58;95923.63;;;7.29;100.00
49040;BME280;36811;49.732;13.402;2022-09-28T05:29:23;95916.25;;;7.26;100.00
49040;BME280;36811;49.732;13.402;2022-09-28T05:31:49;95908.66;;;7.20;100.00
49040;BME280;36811;49.732;13.402;2022-09-28T05:34:15;95899.44;;;7.17;100.00
49040;BME280;36811;49.732;13.402;2022-09-28T05:36:40;95901.22;;;7.22;100.00
49040;BME280;36811;49.732;13.402;2022-09-28T05:39:07;95888.81;;;7.22;100.00
49040;BME280;36811;49.732;13.402;2022-09-28T05:41:34;95881.78;;;7.13;100.00
49040;BME280;36811;49.732;13.402;2022-09-28T05:44:00;95877.03;;;7.10;100.00
49040;BME280;36811;49.732;13.402;2022-09-28T05:46:25;95875.97;;;7.11;100.00
49040;BME280;36811;49.732;13.402;2022-09-28T05:48:51;95868.09;;;7.06;100.00
49040;BME280;36811;49.732;13.402;2022-09-28T05:51:17;95863.03;;;7.09;100.00
49040;BME280;36811;49.732;13.402;2022-09-28T05:53:43;95849.31;;;7.07;100.00
49040;BME280;36811;49.732;13.402;2022-09-28T05:56:09;95850.84;;;7.13;100.00
49040;BME280;36811;49.732;13.402;2022-09-28T05:58:34;95839.63;;;7.21;100.00
49040;BME280;36811;49.732;13.402;2022-09-28T06:01:00;95834.88;;;7.23;100.00
49040;BME280;36811;49.732;13.402;2022-09-28T06:03:26;95827.88;;;7.32;100.00
49040;BME280;36811;49.732;13.402;2022-09-28T06:05:52;95826.41;;;7.45;100.00
49040;BME280;36811;49.732;13.402;2022-09-28T06:08:18;95825.63;;;7.44;100.00
49040;BME280;36811;49.732;13.402;2022-09-28T06:10:43;95822.34;;;7.52;100.00
49040;BME280;36811;49.732;13.402;2022-09-28T06:13:09;95815.47;;;7.51;100.00
49040;BME280;36811;49.732;13.402;2022-09-28T06:15:36;95819.44;;;7.30;100.00
49040;BME280;36811;49.732;13.402;2022-09-28T06:18:04;95824.81;;;7.25;100.00
49040;BME280;36811;49.732;13.402;2022-09-28T06:20:34;95819.22;;;7.27;100.00
49040;BME280;36811;49.732;13.402;2022-09-28T06:23:00;95808.13;;;7.25;100.00
49040;BME280;36811;49.732;13.402;2022-09-28T06:25:26;95814.03;;;7.17;100.00
49040;BME280;36811;49.732;13.402;2022-09-28T06:28:06;95807.69;;;7.18;100.00
49040;BME280;36811;49.732;13.402;2022-09-28T06:30:34;95800.69;;;7.08;100.00
49040;BME280;36811;49.732;13.402;2022-09-28T06:33:04;95798.25;;;7.12;100.00
49040;BME280;36811;49.732;13.402;2022-09-28T06:35:31;95796.88;;;7.14;100.00
49040;BME280;36811;49.732;13.402;2022-09-28T06:38:00;95804.88;;;7.09;100.00
49040;BME280;36811;49.732;13.402;2022-09-28T06:40:27;95790.81;;;7.14;100.00
49040;BME280;36811;49.732;13.402;2022-09-28T06:43:08;95787.84;;;7.20;100.00
49040;BME280;36811;49.732;13.402;2022-09-28T06:45:36;95793.69;;;7.17;100.00
49040;BME280;36811;49.732;13.402;2022-09-28T06:48:03;95784.22;;;7.11;100.00
49040;BME280;36811;49.732;13.402;2022-09-28T06:50:32;95778.25;;;7.24;100.00
49040;BME280;36811;49.732;13.402;2022-09-28T06:52:59;95772.97;;;7.24;100.00
49040;BME280;36811;49.732;13.402;2022-09-28T06:55:26;95777.75;;;7.22;100.00
49040;BME280;36811;49.732;13.402;2022-09-28T06:58:03;95770.28;;;7.29;100.00
49040;BME280;36811;49.732;13.402;2022-09-28T07:00:32;95768.59;;;7.38;100.00
49040;BME280;36811;49.732;13.402;2022-09-28T07:03:00;95770.00;;;7.31;100.00
49040;BME280;36811;49.732;13.402;2022-09-28T07:05:26;95760.59;;;7.43;100.00
49040;BME280;36811;49.732;13.402;2022-09-28T07:07:54;95761.03;;;7.50;100.00
49040;BME280;36811;49.732;13.402;2022-09-28T07:10:25;95755.84;;;7.59;100.00
49040;BME280;36811;49.732;13.402;2022-09-28T07:12:54;95754.56;;;7.56;100.00
49040;BME280;36811;49.732;13.402;2022-09-28T07:15:22;95754.06;;;7.36;100.00
49040;BME280;36811;49.732;13.402;2022-09-28T07:17:48;95748.19;;;7.39;100.00
49040;BME280;36811;49.732;13.402;2022-09-28T07:20:15;95743.56;;;7.49;100.00
49040;BME280;36811;49.732;13.402;2022-09-28T07:22:41;95743.16;;;7.61;100.00
49040;BME280;36811;49.732;13.402;2022-09-28T07:25:08;95740.78;;;7.78;100.00
49040;BME280;36811;49.732;13.402;2022-09-28T07:27:35;95739.84;;;7.69;100.00
49040;BME280;36811;49.732;13.402;2022-09-28T07:30:04;95748.78;;;7.54;100.00
49040;BME280;36811;49.732;13.402;2022-09-28T07:32:30;95741.13;;;7.72;100.00
49040;BME280;36811;49.732;13.402;2022-09-28T07:34:59;95737.44;;;7.73;100.00
49040;BME280;36811;49.732;13.402;2022-09-28T07:37:29;95752.94;;;7.42;100.00
49040;BME280;36811;49.732;13.402;2022-09-28T07:39:55;95736.78;;;7.62;100.00
49040;BME280;36811;49.732;13.402;2022-09-28T07:42:39;95745.56;;;7.95;100.00
49040;BME280;36811;49.732;13.402;2022-09-28T07:45:05;95746.69;;;8.07;100.00
49040;BME280;36811;49.732;13.402;2022-09-28T07:47:31;95743.84;;;8.04;100.00
49040;BME280;36811;49.732;13.402;2022-09-28T07:49:57;95748.03;;;8.05;100.00
49040;BME280;36811;49.732;13.402;2022-09-28T07:52:23;95737.91;;;8.25;100.00
49040;BME280;36811;49.732;13.402;2022-09-28T07:54:51;95737.69;;;8.27;100.00
49040;BME280;36811;49.732;13.402;2022-09-28T07:57:19;95749.25;;;8.31;100.00
49040;BME280;36811;49.732;13.402;2022-09-28T07:59:46;95752.22;;;8.43;100.00
49040;BME280;36811;49.732;13.402;2022-09-28T08:02:12;95755.19;;;8.23;100.00
49040;BME280;36811;49.732;13.402;2022-09-28T08:04:38;95765.03;;;8.04;100.00
49040;BME280;36811;49.732;13.402;2022-09-28T08:07:09;95754.34;;;8.27;100.00
49040;BME280;36811;49.732;13.402;2022-09-28T08:09:35;95754.59;;;8.26;100.00
49040;BME280;36811;49.732;13.402;2022-09-28T08:12:02;95760.25;;;8.38;100.00
49040;BME280;36811;49.732;13.402;2022-09-28T08:14:32;95762.66;;;8.53;100.00
49040;BME280;36811;49.732;13.402;2022-09-28T08:17:00;95761.22;;;8.74;100.00
49040;BME280;36811;49.732;13.402;2022-09-28T08:19:26;95760.03;;;8.80;100.00
49040;BME280;36811;49.732;13.402;2022-09-28T08:22:11;95756.78;;;8.56;100.00
49040;BME280;36811;49.732;13.402;2022-09-28T08:24:37;95749.81;;;8.60;100.00
49040;BME280;36811;49.732;13.402;2022-09-28T08:27:03;95742.38;;;8.89;100.00
49040;BME280;36811;49.732;13.402;2022-09-28T08:29:29;95731.38;;;8.96;100.00
49040;BME280;36811;49.732;13.402;2022-09-28T08:31:57;95732.66;;;8.85;100.00
49040;BME280;36811;49.732;13.402;2022-09-28T08:34:24;95733.94;;;8.87;100.00
49040;BME280;36811;49.732;13.402;2022-09-28T08:36:52;95727.56;;;8.75;100.00
49040;BME280;36811;49.732;13.402;2022-09-28T08:39:18;95733.63;;;8.62;100.00
49040;BME280;36811;49.732;13.402;2022-09-28T08:42:11;95726.66;;;8.93;100.00
49040;BME280;36811;49.732;13.402;2022-09-28T08:44:50;95734.59;;;9.34;100.00
49040;BME280;36811;49.732;13.402;2022-09-28T08:47:52;95747.97;;;9.42;100.00
49040;BME280;36811;49.732;13.402;2022-09-28T08:51:08;95758.19;;;9.35;100.00
49040;BME280;36811;49.732;13.402;2022-09-28T08:54:05;95760.91;;;9.44;100.00
49040;BME280;36811;49.732;13.402;2022-09-28T08:59:10;95768.81;;;9.22;100.00
49040;BME280;36811;49.732;13.402;2022-09-28T09:01:43;95770.19;;;9.33;100.00
49040;BME280;36811;49.732;13.402;2022-09-28T09:04:12;95771.34;;;9.27;100.00
49040;BME280;36811;49.732;13.402;2022-09-28T09:15:36;95754.94;;;9.88;100.00
49040;BME280;36811;49.732;13.402;2022-09-28T09:20:46;95772.66;;;9.79;100.00
49040;BME280;36811;49.732;13.402;2022-09-28T09:23:35;95783.00;;;9.67;100.00
49040;BME280;36811;49.732;13.402;2022-09-28T09:26:18;95782.50;;;9.65;100.00
49040;BME280;36811;49.732;13.402;2022-09-28T09:45:30;95797.03;;;9.81;100.00
49040;BME280;36811;49.732;13.402;2022-09-28T09:48:08;95788.91;;;10.13;100.00
49040;BME280;36811;49.732;13.402;2022-09-28T09:50:46;95785.34;;;10.17;100.00
49040;BME280;36811;49.732;13.402;2022-09-28T09:53:26;95786.81;;;10.10;100.00
49040;BME280;36811;49.732;13.402;2022-09-28T09:56:03;95784.88;;;10.02;100.00
49040;BME280;36811;49.732;13.402;2022-09-28T09:58:39;95782.00;;;10.12;100.00
49040;BME280;36811;49.732;13.402;2022-09-28T10:01:16;95789.38;;;10.15;100.00
49040;BME280;36811;49.732;13.402;2022-09-28T10:03:45;95782.56;;;10.23;100.00
49040;BME280;36811;49.732;13.402;2022-09-28T10:06:18;95791.41;;;10.32;100.00
49040;BME280;36811;49.732;13.402;2022-09-28T10:08:49;95793.09;;;10.50;100.00
49040;BME280;36811;49.732;13.402;2022-09-28T10:11:24;95794.88;;;10.63;100.00
49040;BME280;36811;49.732;13.402;2022-09-28T10:13:52;95807.72;;;10.39;100.00
49040;BME280;36811;49.732;13.402;2022-09-28T10:16:18;95801.72;;;10.55;100.00
49040;BME280;36811;49.732;13.402;2022-09-28T10:18:44;95801.06;;;10.50;100.00
49040;BME280;36811;49.732;13.402;2022-09-28T10:21:14;95812.41;;;10.42;100.00
49040;BME280;36811;49.732;13.402;2022-09-28T10:23:41;95808.66;;;10.43;100.00
49040;BME280;36811;49.732;13.402;2022-09-28T10:26:17;95797.34;;;10.81;100.00
49040;BME280;36811;49.732;13.402;2022-09-28T10:28:54;95788.16;;;11.27;100.00
49040;BME280;36811;49.732;13.402;2022-09-28T10:31:42;95787.50;;;11.69;100.00
49040;BME280;36811;49.732;13.402;2022-09-28T10:34:10;95814.91;;;11.61;100.00
49040;BME280;36811;49.732;13.402;2022-09-28T10:39:36;95810.78;;;12.12;100.00
49040;BME280;36811;49.732;13.402;2022-09-28T10:42:11;95823.00;;;12.47;100.00
49040;BME280;36811;49.732;13.402;2022-09-28T10:44:54;95831.94;;;12.42;100.00
49040;BME280;36811;49.732;13.402;2022-09-28T10:47:22;95851.34;;;12.00;100.00
49040;BME280;36811;49.732;13.402;2022-09-28T10:49:49;95841.56;;;11.70;100.00
49040;BME280;36811;49.732;13.402;2022-09-28T10:52:34;95856.63;;;11.83;100.00
49040;BME280;36811;49.732;13.402;2022-09-28T10:55:03;95894.50;;;12.28;94.90
49040;BME280;36811;49.732;13.402;2022-09-28T10:57:48;95903.31;;;12.71;92.29
49040;BME280;36811;49.732;13.402;2022-09-28T11:00:39;95901.25;;;12.94;89.07
49040;BME280;36811;49.732;13.402;2022-09-28T11:03:05;95895.91;;;13.02;86.99
49040;BME280;36811;49.732;13.402;2022-09-28T11:05:52;95884.59;;;13.22;87.18
49040;BME280;36811;49.732;13.402;2022-09-28T11:08:27;95887.34;;;14.19;82.25
49040;BME280;36811;49.732;13.402;2022-09-28T11:11:05;95887.50;;;14.43;80.41
49040;BME280;36811;49.732;13.402;2022-09-28T11:13:56;95887.91;;;14.74;79.83
49040;BME280;36811;49.732;13.402;2022-09-28T11:16:31;95891.94;;;14.80;79.99
49040;BME280;36811;49.732;13.402;2022-09-28T11:21:43;95880.81;;;16.04;74.28
49040;BME280;36811;49.732;13.402;2022-09-28T11:26:42;95877.50;;;15.71;72.21
49040;BME280;36811;49.732;13.402;2022-09-28T11:29:40;95876.81;;;15.29;73.27
49040;BME280;36811;49.732;13.402;2022-09-28T11:32:08;95878.22;;;15.02;73.44
49040;BME280;36811;49.732;13.402;2022-09-28T11:34:42;95889.84;;;15.51;71.81
49040;BME280;36811;49.732;13.402;2022-09-28T11:40:15;95888.41;;;16.14;68.38
49040;BME280;36811;49.732;13.402;2022-09-28T11:43:03;95884.41;;;15.72;68.25
49040;BME280;36811;49.732;13.402;2022-09-28T11:48:27;95894.53;;;14.47;69.92
49040;BME280;36811;49.732;13.402;2022-09-28T11:51:01;95892.16;;;14.54;70.79
49040;BME280;36811;49.732;13.402;2022-09-28T11:58:40;95891.22;;;14.92;68.15
49040;BME280;36811;49.732;13.402;2022-09-28T12:01:18;95888.22;;;15.05;68.47
49040;BME280;36811;49.732;13.402;2022-09-28T12:03:50;95882.16;;;15.50;66.84
49040;BME280;36811;49.732;13.402;2022-09-28T12:06:23;95883.44;;;15.44;66.99
49040;BME280;36811;49.732;13.402;2022-09-28T12:08:59;95881.72;;;15.72;65.57
49040;BME280;36811;49.732;13.402;2022-09-28T12:11:35;95878.28;;;15.83;64.37
49040;BME280;36811;49.732;13.402;2022-09-28T12:14:06;95874.94;;;15.99;63.97
49040;BME280;36811;49.732;13.402;2022-09-28T12:16:43;95886.31;;;16.08;63.47
49040;BME280;36811;49.732;13.402;2022-09-28T12:21:55;95877.81;;;16.70;60.83
49040;BME280;36811;49.732;13.402;2022-09-28T12:24:26;95881.03;;;17.15;60.58
49040;BME280;36811;49.732;13.402;2022-09-28T12:27:02;95894.47;;;17.31;60.30
49040;BME280;36811;49.732;13.402;2022-09-28T12:30:12;95901.59;;;16.56;62.22
49040;BME280;36811;49.732;13.402;2022-09-28T12:34:48;95895.28;;;14.36;67.14
49040;BME280;36811;49.732;13.402;2022-09-28T12:43:14;95925.59;;;10.43;88.37
49040;BME280;36811;49.732;13.402;2022-09-28T12:51:53;95928.13;;;10.48;92.12
49040;BME280;36811;49.732;13.402;2022-09-28T12:54:44;95928.19;;;10.34;90.45
49040;BME280;36811;49.732;13.402;2022-09-28T12:57:29;95925.84;;;9.92;88.82
49040;BME280;36811;49.732;13.402;2022-09-28T13:00:33;95939.56;;;10.48;90.50
49040;BME280;36811;49.732;13.402;2022-09-28T13:06:15;95942.06;;;12.68;73.88
49040;BME280;36811;49.732;13.402;2022-09-28T13:09:20;95944.66;;;13.54;69.41
49040;BME280;36811;49.732;13.402;2022-09-28T13:12:03;95946.13;;;13.43;63.69
49040;BME280;36811;49.732;13.402;2022-09-28T13:25:19;95954.94;;;13.81;61.89
49040;BME280;36811;49.732;13.402;2022-09-28T13:27:59;95952.28;;;13.81;62.45
49040;BME280;36811;49.732;13.402;2022-09-28T13:30:25;95962.22;;;13.72;62.74
49040;BME280;36811;49.732;13.402;2022-09-28T13:32:56;95960.72;;;14.30;63.00
49040;BME280;36811;49.732;13.402;2022-09-28T13:35:24;95964.47;;;14.87;62.13
49040;BME280;36811;49.732;13.402;2022-09-28T13:43:34;95965.56;;;14.86;61.79
49040;BME280;36811;49.732;13.402;2022-09-28T13:46:20;95973.38;;;15.53;59.01
49040;BME280;36811;49.732;13.402;2022-09-28T13:49:15;95965.22;;;16.19;57.29
49040;BME280;36811;49.732;13.402;2022-09-28T13:54:24;95967.28;;;15.89;55.82
49040;BME280;36811;49.732;13.402;2022-09-28T13:59:51;95983.69;;;15.43;58.09
49040;BME280;36811;49.732;13.402;2022-09-28T14:05:46;95978.38;;;16.48;54.83
49040;BME280;36811;49.732;13.402;2022-09-28T14:10:53;95993.50;;;16.40;53.43
49040;BME280;36811;49.732;13.402;2022-09-28T14:16:24;95999.56;;;15.80;53.61
49040;BME280;36811;49.732;13.402;2022-09-28T14:19:03;96003.00;;;15.69;53.62
49040;BME280;36811;49.732;13.402;2022-09-28T14:32:40;96011.31;;;15.88;51.96
49040;BME280;36811;49.732;13.402;2022-09-28T14:37:40;96018.97;;;15.65;51.58
49040;BME280;36811;49.732;13.402;2022-09-28T14:54:03;96038.94;;;14.85;52.72
49040;BME280;36811;49.732;13.402;2022-09-28T14:56:48;96025.44;;;14.82;52.26
49040;BME280;36811;49.732;13.402;2022-09-28T14:59:42;96032.09;;;14.46;53.08
49040;BME280;36811;49.732;13.402;2022-09-28T15:04:41;96040.56;;;14.48;52.07
49040;BME280;36811;49.732;13.402;2022-09-28T15:09:51;96036.47;;;14.05;52.57
49040;BME280;36811;49.732;13.402;2022-09-28T15:12:19;96049.56;;;13.89;54.17
49040;BME280;36811;49.732;13.402;2022-09-28T15:15:04;96056.13;;;14.09;54.75
49040;BME280;36811;49.732;13.402;2022-09-28T15:17:35;96053.22;;;14.39;52.25
49040;BME280;36811;49.732;13.402;2022-09-28T15:22:30;96051.25;;;14.57;51.67
49040;BME280;36811;49.732;13.402;2022-09-28T15:25:02;96043.28;;;14.40;52.23
49040;BME280;36811;49.732;13.402;2022-09-28T15:27:36;96043.97;;;14.20;53.22
49040;BME280;36811;49.732;13.402;2022-09-28T15:30:27;96046.47;;;14.25;53.21
49040;BME280;36811;49.732;13.402;2022-09-28T15:32:55;96048.47;;;13.81;53.50
49040;BME280;36811;49.732;13.402;2022-09-28T15:35:41;96044.28;;;13.55;54.49
49040;BME280;36811;49.732;13.402;2022-09-28T15:38:13;96046.81;;;13.34;54.58
49040;BME280;36811;49.732;13.402;2022-09-28T15:40:40;96047.91;;;13.16;55.58
49040;BME280;36811;49.732;13.402;2022-09-28T15:43:25;96055.56;;;13.00;55.04
49040;BME280;36811;49.732;13.402;2022-09-28T15:46:02;96047.84;;;12.82;55.24
49040;BME280;36811;49.732;13.402;2022-09-28T15:48:30;96058.19;;;12.74;57.27
49040;BME280;36811;49.732;13.402;2022-09-28T15:51:09;96057.56;;;12.77;56.00
49040;BME280;36811;49.732;13.402;2022-09-28T15:54:03;96063.69;;;12.78;56.74
49040;BME280;36811;49.732;13.402;2022-09-28T15:56:58;96073.91;;;12.85;56.88
49040;BME280;36811;49.732;13.402;2022-09-28T15:59:36;96074.38;;;12.87;57.37
49040;BME280;36811;49.732;13.402;2022-09-28T16:02:18;96071.09;;;12.90;57.60
49040;BME280;36811;49.732;13.402;2022-09-28T16:04:52;96079.56;;;12.92;57.89
49040;BME280;36811;49.732;13.402;2022-09-28T16:10:26;96091.66;;;12.89;59.23